createdAt,value
2023-04-06T00:01:29.642Z,52.45
2023-04-06T00:04:02.598Z,52.31
2023-04-06T00:06:35.661Z,52.43
2023-04-06T00:09:08.886Z,52.56
2023-04-06T00:11:41.948Z,52.53
2023-04-06T00:14:15.000Z,52.67
2023-04-06T00:16:47.938Z,52.47
2023-04-06T00:19:20.664Z,52.57
2023-04-06T00:21:53.075Z,52.74
2023-04-06T00:24:25.564Z,52.97
2023-04-06T00:26:58.235Z,53.00
2023-04-06T00:29:30.406Z,52.99
2023-04-06T00:32:02.906Z,52.92
2023-04-06T00:34:35.818Z,52.89
2023-04-06T00:37:08.424Z,53.00
2023-04-06T00:39:40.824Z,53.22
2023-04-06T00:42:15.919Z,53.11
2023-04-06T00:44:48.288Z,53.45
2023-04-06T00:47:20.768Z,53.34
2023-04-06T00:49:54.040Z,53.51
2023-04-06T00:52:27.048Z,53.51
2023-04-06T00:55:00.345Z,53.19
2023-04-06T00:57:34.970Z,53.42
2023-04-06T01:00:09.758Z,53.25
2023-04-06T01:02:42.314Z,53.44
2023-04-06T01:05:15.250Z,53.58
2023-04-06T01:07:57.168Z,53.61
2023-04-06T01:10:32.873Z,53.60
2023-04-06T01:13:14.869Z,53.59
2023-04-06T01:15:57.931Z,53.66
2023-04-06T01:18:39.748Z,53.91
2023-04-06T01:21:21.718Z,53.98
2023-04-06T01:24:14.459Z,53.89
2023-04-06T01:27:03.035Z,53.94
2023-04-06T01:29:45.601Z,53.87
2023-04-06T01:32:20.029Z,53.87
2023-04-06T01:34:55.910Z,54.05
2023-04-06T01:37:28.611Z,54.03
2023-04-06T01:40:03.460Z,54.14
2023-04-06T01:42:46.359Z,54.07
2023-04-06T01:45:22.119Z,54.18
2023-04-06T01:47:54.746Z,54.43
2023-04-06T01:50:30.024Z,54.57
2023-04-06T01:53:02.512Z,54.26
2023-04-06T01:55:35.559Z,54.39
2023-04-06T01:58:23.181Z,54.51
2023-04-06T02:00:55.684Z,54.61
2023-04-06T02:03:28.002Z,54.54
2023-04-06T02:06:07.582Z,54.62
2023-04-06T02:08:43.260Z,54.57
2023-04-06T02:11:16.248Z,54.69
2023-04-06T02:13:53.131Z,54.54
2023-04-06T02:16:25.969Z,54.52
2023-04-06T02:18:58.702Z,54.50
2023-04-06T02:21:31.209Z,54.48
2023-04-06T02:24:04.799Z,54.33
2023-04-06T02:26:37.082Z,54.22
2023-04-06T02:29:09.555Z,54.38
2023-04-06T02:31:42.069Z,54.39
2023-04-06T02:34:18.834Z,54.40
2023-04-06T02:36:54.003Z,54.32
2023-04-06T02:39:26.504Z,54.23
2023-04-06T02:41:59.904Z,54.44
2023-04-06T02:44:32.644Z,54.45
2023-04-06T02:47:05.075Z,54.40
2023-04-06T02:49:37.734Z,54.56
2023-04-06T02:52:10.462Z,54.74
2023-04-06T02:54:43.549Z,54.57
2023-04-06T02:57:15.995Z,54.81
2023-04-06T02:59:50.429Z,54.75
2023-04-06T03:02:30.089Z,54.70
2023-04-06T03:05:10.104Z,54.78
2023-04-06T03:07:46.143Z,54.72
2023-04-06T03:10:28.354Z,54.85
2023-04-06T03:13:01.387Z,54.88
2023-04-06T03:15:51.799Z,54.98
2023-04-06T03:18:27.262Z,55.03
2023-04-06T03:21:02.334Z,55.10
2023-04-06T03:23:41.240Z,55.31
2023-04-06T03:26:13.936Z,55.59
2023-04-06T03:28:46.394Z,55.64
2023-04-06T03:31:19.826Z,55.70
2023-04-06T03:33:58.693Z,55.95
2023-04-06T03:36:34.049Z,55.84
2023-04-06T03:39:07.176Z,55.90
2023-04-06T03:41:41.711Z,55.88
2023-04-06T03:44:23.732Z,55.69
2023-04-06T03:46:56.535Z,55.67
2023-04-06T03:49:29.754Z,55.65
2023-04-06T03:52:03.462Z,55.73
2023-04-06T03:54:36.418Z,55.69
2023-04-06T03:57:09.135Z,55.72
2023-04-06T03:59:42.139Z,55.93
2023-04-06T04:02:14.644Z,56.07
2023-04-06T04:04:47.147Z,55.96
2023-04-06T04:07:19.537Z,55.79
2023-04-06T04:09:52.333Z,55.72
2023-04-06T04:12:25.258Z,55.55
2023-04-06T04:14:58.294Z,55.70
2023-04-06T04:17:33.962Z,55.76
2023-04-06T04:20:07.987Z,55.76
2023-04-06T04:22:40.485Z,55.44
2023-04-06T04:25:13.777Z,55.66
2023-04-06T04:27:51.079Z,55.79
2023-04-06T04:30:24.422Z,55.90
2023-04-06T04:32:56.967Z,55.86
2023-04-06T04:35:30.705Z,55.85
2023-04-06T04:38:04.043Z,55.96
2023-04-06T04:40:37.123Z,56.06
2023-04-06T04:43:13.545Z,56.15
2023-04-06T04:45:46.611Z,56.02
2023-04-06T04:48:45.339Z,56.03
2023-04-06T04:51:20.704Z,56.12
2023-04-06T04:54:09.116Z,56.14
2023-04-06T04:56:41.804Z,56.19
2023-04-06T04:59:26.028Z,56.23
2023-04-06T05:02:03.683Z,56.48
2023-04-06T05:04:43.919Z,56.79
2023-04-06T05:07:19.780Z,56.83
2023-04-06T05:09:53.370Z,56.82
2023-04-06T05:12:28.058Z,56.97
2023-04-06T05:15:10.711Z,57.20
2023-04-06T05:17:42.214Z,57.53
2023-04-06T05:20:17.497Z,57.59
2023-04-06T05:22:53.989Z,57.63
2023-04-06T05:25:26.631Z,57.67
2023-04-06T05:28:00.949Z,57.61
2023-04-06T05:30:39.447Z,57.71
2023-04-06T05:33:12.352Z,57.61
2023-04-06T05:36:08.427Z,57.58
2023-04-06T05:38:43.749Z,57.73
2023-04-06T05:41:55.042Z,57.58
2023-04-06T05:44:50.262Z,57.67
2023-04-06T05:47:23.293Z,57.73
2023-04-06T05:50:02.566Z,57.81
2023-04-06T05:52:39.061Z,58.05
2023-04-06T05:55:12.207Z,58.01
2023-04-06T05:57:46.632Z,58.17
2023-04-06T06:00:20.386Z,58.19
2023-04-06T06:02:58.335Z,57.98
2023-04-06T06:05:34.277Z,57.77
2023-04-06T06:08:12.229Z,57.60
2023-04-06T06:10:45.421Z,57.62
2023-04-06T06:13:18.528Z,57.58
2023-04-06T06:15:51.462Z,57.59
2023-04-06T06:18:24.927Z,57.64
2023-04-06T06:20:59.186Z,57.48
2023-04-06T06:23:32.116Z,57.22
2023-04-06T06:26:04.721Z,57.36
2023-04-06T06:28:38.149Z,57.15
2023-04-06T06:31:11.571Z,57.14
2023-04-06T06:33:44.669Z,56.95
2023-04-06T06:36:17.566Z,57.03
2023-04-06T06:38:50.412Z,56.80
2023-04-06T06:41:24.436Z,56.65
2023-04-06T06:43:56.796Z,57.04
2023-04-06T06:46:29.879Z,57.08
2023-04-06T06:49:02.542Z,56.37
2023-04-06T06:51:35.812Z,56.56
2023-04-06T06:54:09.422Z,56.84
2023-04-06T06:56:42.335Z,56.59
2023-04-06T06:59:15.241Z,56.55
2023-04-06T07:01:48.041Z,56.45
2023-04-06T07:04:20.855Z,56.40
2023-04-06T07:06:53.820Z,56.07
2023-04-06T07:09:27.653Z,56.09
2023-04-06T07:12:00.057Z,55.65
2023-04-06T07:14:33.847Z,54.87
2023-04-06T07:17:06.706Z,54.20
2023-04-06T07:19:39.263Z,54.45
2023-04-06T07:22:12.243Z,54.09
2023-04-06T07:24:45.354Z,53.20
2023-04-06T07:27:18.471Z,51.68
2023-04-06T07:29:51.382Z,50.99
2023-04-06T07:32:24.439Z,50.83
2023-04-06T07:34:58.195Z,50.69
2023-04-06T07:37:31.501Z,50.69
2023-04-06T07:40:04.405Z,49.85
2023-04-06T07:42:37.173Z,50.50
2023-04-06T07:45:13.098Z,49.66
2023-04-06T07:47:44.027Z,50.09
2023-04-06T07:50:17.310Z,50.37
2023-04-06T07:52:49.865Z,50.31
2023-04-06T07:55:22.443Z,50.07
2023-04-06T07:57:54.630Z,50.04
2023-04-06T08:00:27.652Z,49.48
2023-04-06T08:03:00.519Z,48.78
2023-04-06T08:05:33.635Z,48.91
2023-04-06T08:08:06.295Z,48.66
2023-04-06T08:10:39.048Z,48.40
2023-04-06T08:13:11.596Z,47.46
2023-04-06T08:15:44.235Z,47.11
2023-04-06T08:18:17.106Z,47.33
2023-04-06T08:20:49.981Z,47.28
2023-04-06T08:23:22.580Z,45.80
2023-04-06T08:25:55.342Z,45.94
2023-04-06T08:28:27.642Z,45.79
2023-04-06T08:31:00.587Z,45.42
2023-04-06T08:33:36.178Z,45.46
2023-04-06T08:36:13.865Z,45.83
2023-04-06T08:38:46.732Z,45.73
2023-04-06T08:41:20.231Z,44.86
2023-04-06T08:43:58.671Z,44.79
2023-04-06T08:46:33.100Z,45.18
2023-04-06T08:49:07.888Z,45.22
2023-04-06T08:51:39.594Z,44.77
2023-04-06T08:54:11.908Z,43.85
2023-04-06T08:56:45.307Z,43.52
2023-04-06T08:59:17.927Z,43.95
2023-04-06T09:01:51.207Z,43.30
2023-04-06T09:04:24.005Z,43.55
2023-04-06T09:06:57.056Z,43.06
2023-04-06T09:09:29.860Z,43.21
2023-04-06T09:12:06.895Z,43.51
2023-04-06T09:14:41.329Z,42.98
2023-04-06T09:17:24.718Z,42.00
2023-04-06T09:19:58.958Z,42.24
2023-04-06T09:22:39.602Z,43.61
2023-04-06T09:25:20.574Z,43.54
2023-04-06T09:28:03.116Z,41.97
2023-04-06T09:30:37.092Z,41.86
2023-04-06T09:33:09.437Z,40.98
2023-04-06T09:35:42.153Z,39.99
2023-04-06T09:38:16.110Z,40.37
2023-04-06T09:41:01.096Z,41.64
2023-04-06T09:43:34.416Z,41.38
2023-04-06T09:46:08.015Z,40.31
2023-04-06T09:48:41.254Z,40.57
2023-04-06T09:51:17.522Z,41.65
2023-04-06T09:53:54.714Z,41.21
2023-04-06T09:56:30.188Z,39.99
2023-04-06T09:59:10.534Z,40.64
2023-04-06T10:01:43.920Z,40.68
2023-04-06T10:04:33.001Z,40.12
2023-04-06T10:07:07.738Z,40.03
2023-04-06T10:09:39.759Z,39.92
2023-04-06T10:12:14.905Z,40.16
2023-04-06T10:14:47.875Z,38.62
2023-04-06T10:17:20.748Z,38.11
2023-04-06T10:19:56.514Z,38.08
2023-04-06T10:22:35.221Z,37.94
2023-04-06T10:25:09.951Z,38.13
2023-04-06T10:27:40.796Z,38.70
2023-04-06T10:30:18.240Z,38.58
2023-04-06T10:32:51.079Z,39.23
2023-04-06T10:35:25.050Z,39.05
2023-04-06T10:38:05.957Z,38.00
2023-04-06T10:40:42.856Z,37.90
2023-04-06T10:43:20.759Z,37.94
2023-04-06T10:45:59.643Z,37.09
2023-04-06T10:48:42.680Z,37.66
2023-04-06T10:51:17.242Z,38.11
2023-04-06T10:53:51.115Z,38.16
2023-04-06T10:56:29.119Z,37.65
2023-04-06T10:59:01.686Z,37.47
2023-04-06T11:01:34.157Z,37.12
2023-04-06T11:04:09.608Z,37.25
2023-04-06T11:06:42.437Z,36.37
2023-04-06T11:09:24.985Z,37.29
2023-04-06T11:11:58.472Z,36.06
2023-04-06T11:14:31.233Z,37.03
2023-04-06T11:17:03.960Z,37.17
2023-04-06T11:19:37.933Z,36.15
2023-04-06T11:22:12.301Z,35.24
2023-04-06T11:24:44.820Z,35.34
2023-04-06T11:27:18.456Z,35.43
2023-04-06T11:29:52.163Z,36.24
2023-04-06T11:32:27.717Z,35.83
2023-04-06T11:35:01.819Z,36.94
2023-04-06T11:37:35.184Z,36.15
2023-04-06T11:40:12.441Z,36.51
2023-04-06T11:42:53.974Z,36.68
2023-04-06T11:45:27.394Z,36.69
2023-04-06T11:48:03.660Z,36.01
2023-04-06T11:50:37.384Z,35.96
2023-04-06T11:53:09.622Z,36.13
2023-04-06T11:55:46.170Z,35.36
2023-04-06T11:58:19.303Z,35.26
2023-04-06T12:00:51.989Z,35.00
2023-04-06T12:03:24.749Z,35.75
2023-04-06T12:05:58.806Z,35.89
2023-04-06T12:08:32.291Z,36.23
2023-04-06T12:11:05.118Z,35.26
2023-04-06T12:13:38.052Z,35.06
2023-04-06T12:16:11.446Z,34.92
2023-04-06T12:18:43.983Z,35.14
2023-04-06T12:21:16.827Z,34.41
2023-04-06T12:23:49.738Z,34.51
2023-04-06T12:26:22.136Z,36.33
2023-04-06T12:28:54.882Z,35.88
2023-04-06T12:31:27.705Z,35.17
2023-04-06T12:34:00.352Z,35.07
2023-04-06T12:36:33.101Z,34.33
2023-04-06T12:39:06.008Z,34.22
2023-04-06T12:41:41.499Z,35.01
2023-04-06T12:44:13.986Z,34.69
2023-04-06T12:46:47.894Z,35.08
2023-04-06T12:49:20.784Z,34.98
2023-04-06T12:51:53.467Z,35.36
2023-04-06T12:54:27.815Z,34.81
2023-04-06T12:57:00.397Z,35.28
2023-04-06T12:59:36.698Z,35.50
2023-04-06T13:02:09.417Z,34.98
2023-04-06T13:04:41.986Z,34.12
2023-04-06T13:07:15.472Z,35.12
2023-04-06T13:09:50.547Z,35.30
2023-04-06T13:12:23.043Z,35.46
2023-04-06T13:14:55.795Z,35.03
2023-04-06T13:17:30.984Z,36.04
2023-04-06T13:20:02.369Z,35.00
2023-04-06T13:22:35.461Z,35.42
2023-04-06T13:25:09.149Z,35.90
2023-04-06T13:27:42.126Z,35.61
2023-04-06T13:30:17.862Z,34.88
2023-04-06T13:32:50.881Z,35.50
2023-04-06T13:35:23.960Z,34.93
2023-04-06T13:37:56.495Z,34.51
2023-04-06T13:40:29.035Z,35.04
2023-04-06T13:43:01.878Z,35.00
2023-04-06T13:45:35.215Z,35.28
2023-04-06T13:48:08.741Z,34.42
2023-04-06T13:50:41.834Z,34.32
2023-04-06T13:53:14.413Z,34.21
2023-04-06T13:55:54.108Z,34.90
2023-04-06T13:58:26.742Z,34.59
2023-04-06T14:01:04.089Z,34.16
2023-04-06T14:03:36.795Z,33.95
2023-04-06T14:06:29.703Z,34.41
2023-04-06T14:09:03.385Z,34.26
2023-04-06T14:11:36.440Z,33.79
2023-04-06T14:14:09.387Z,34.40
2023-04-06T14:16:45.141Z,33.66
2023-04-06T14:19:19.918Z,33.07
2023-04-06T14:21:52.112Z,33.64
2023-04-06T14:24:24.930Z,35.32
2023-04-06T14:26:57.623Z,36.07
2023-04-06T14:29:30.428Z,35.28
2023-04-06T14:32:03.215Z,34.76
2023-04-06T14:34:35.772Z,33.92
2023-04-06T14:37:08.298Z,34.47
2023-04-06T14:39:40.587Z,34.62
2023-04-06T14:42:13.165Z,35.02
2023-04-06T14:44:46.711Z,34.81
2023-04-06T14:47:21.698Z,35.17
2023-04-06T14:49:55.625Z,35.20
2023-04-06T14:52:29.941Z,34.92
2023-04-06T14:55:04.656Z,35.62
2023-04-06T14:57:37.452Z,35.53
2023-04-06T15:00:11.870Z,35.43
2023-04-06T15:02:45.248Z,35.58
2023-04-06T15:05:17.790Z,36.14
2023-04-06T15:07:50.117Z,36.06
2023-04-06T15:10:22.359Z,36.94
2023-04-06T15:12:55.261Z,37.07
2023-04-06T15:15:27.850Z,37.60
2023-04-06T15:18:03.613Z,37.89
2023-04-06T15:20:37.142Z,38.15
2023-04-06T15:23:09.493Z,37.55
2023-04-06T15:25:42.802Z,37.91
2023-04-06T15:28:15.071Z,38.01
2023-04-06T15:30:47.804Z,37.26
2023-04-06T15:33:21.831Z,36.76
2023-04-06T15:35:54.375Z,36.59
2023-04-06T15:38:27.026Z,36.82
2023-04-06T15:40:59.601Z,37.16
2023-04-06T15:43:31.931Z,37.43
2023-04-06T15:46:04.795Z,36.60
2023-04-06T15:48:37.832Z,37.03
2023-04-06T15:51:10.806Z,36.96
2023-04-06T15:53:43.134Z,36.36
2023-04-06T15:56:15.906Z,36.16
2023-04-06T15:58:48.592Z,36.12
2023-04-06T16:01:21.605Z,36.52
2023-04-06T16:03:54.219Z,36.86
2023-04-06T16:06:27.524Z,36.69
2023-04-06T16:08:59.917Z,37.33
2023-04-06T16:11:33.625Z,36.45
2023-04-06T16:14:06.420Z,37.25
2023-04-06T16:16:39.210Z,37.08
2023-04-06T16:19:11.895Z,36.67
2023-04-06T16:21:44.543Z,37.51
2023-04-06T16:24:16.970Z,37.49
2023-04-06T16:26:50.265Z,37.51
2023-04-06T16:29:23.169Z,37.33
2023-04-06T16:31:56.028Z,37.71
2023-04-06T16:34:32.099Z,38.52
2023-04-06T16:37:04.725Z,38.10
2023-04-06T16:39:37.135Z,38.07
2023-04-06T16:42:09.612Z,37.75
2023-04-06T16:44:42.229Z,37.63
2023-04-06T16:47:14.691Z,37.83
2023-04-06T16:49:49.939Z,37.55
2023-04-06T16:52:23.286Z,37.90
2023-04-06T16:54:55.694Z,38.18
2023-04-06T16:57:29.883Z,38.48
2023-04-06T17:00:04.376Z,38.61
2023-04-06T17:02:37.401Z,39.62
2023-04-06T17:05:11.426Z,39.65
2023-04-06T17:07:43.927Z,39.76
2023-04-06T17:10:17.652Z,39.12
2023-04-06T17:12:52.393Z,39.06
2023-04-06T17:15:26.481Z,39.21
2023-04-06T17:17:58.856Z,39.12
2023-04-06T17:20:31.355Z,39.27
2023-04-06T17:23:04.043Z,39.42
2023-04-06T17:25:37.123Z,39.55
2023-04-06T17:28:09.545Z,39.16
2023-04-06T17:30:42.873Z,39.21
2023-04-06T17:33:15.949Z,39.59
2023-04-06T17:35:48.655Z,40.32
2023-04-06T17:38:21.274Z,40.31
2023-04-06T17:40:54.506Z,40.43
2023-04-06T17:43:27.137Z,40.28
2023-04-06T17:45:59.522Z,40.20
2023-04-06T17:48:32.239Z,40.26
2023-04-06T17:51:04.876Z,40.10
2023-04-06T17:53:37.680Z,40.17
2023-04-06T17:56:10.241Z,40.33
2023-04-06T17:58:43.150Z,40.37
2023-04-06T18:01:16.296Z,40.53
2023-04-06T18:03:48.521Z,40.40
2023-04-06T18:06:21.622Z,40.45
2023-04-06T18:08:55.303Z,40.38
2023-04-06T18:11:29.631Z,40.36
2023-04-06T18:14:03.047Z,40.65
2023-04-06T18:16:35.712Z,40.63
2023-04-06T18:19:08.182Z,40.88
2023-04-06T18:21:40.957Z,41.31
2023-04-06T18:24:27.208Z,41.46
2023-04-06T18:27:05.992Z,42.04
2023-04-06T18:29:38.524Z,42.54
2023-04-06T18:32:11.064Z,43.12
2023-04-06T18:34:43.441Z,42.78
2023-04-06T18:37:16.469Z,42.64
2023-04-06T18:39:48.649Z,42.99
2023-04-06T18:42:21.380Z,43.29
2023-04-06T18:44:54.148Z,43.13
2023-04-06T18:47:26.750Z,43.17
2023-04-06T18:49:59.363Z,43.57
2023-04-06T18:52:32.239Z,44.58
2023-04-06T18:55:05.508Z,43.80
2023-04-06T18:57:38.144Z,44.50
2023-04-06T19:00:12.583Z,43.84
2023-04-06T19:02:45.512Z,43.87
2023-04-06T19:05:18.587Z,44.29
2023-04-06T19:07:52.702Z,44.16
2023-04-06T19:10:25.245Z,44.05
2023-04-06T19:12:57.702Z,44.17
2023-04-06T19:15:30.271Z,44.16
2023-04-06T19:18:02.901Z,44.43
2023-04-06T19:20:37.683Z,44.97
2023-04-06T19:23:10.663Z,45.09
2023-04-06T19:25:45.451Z,45.40
2023-04-06T19:28:17.987Z,45.86
2023-04-06T19:30:50.853Z,46.30
2023-04-06T19:33:23.217Z,46.62
2023-04-06T19:35:55.737Z,46.24
2023-04-06T19:38:29.087Z,46.74
2023-04-06T19:41:04.777Z,47.25
2023-04-06T19:43:37.616Z,47.11
2023-04-06T19:46:10.405Z,47.05
2023-04-06T19:48:43.313Z,46.91
2023-04-06T19:51:15.597Z,46.94
2023-04-06T19:53:48.333Z,47.00
2023-04-06T19:56:20.810Z,45.83
2023-04-06T19:58:53.381Z,46.17
2023-04-06T20:01:26.041Z,46.85
2023-04-06T20:03:58.519Z,46.94
2023-04-06T20:06:32.763Z,46.84
2023-04-06T20:09:05.231Z,46.96
2023-04-06T20:11:38.133Z,47.01
2023-04-06T20:14:10.544Z,47.39
2023-04-06T20:16:42.882Z,47.30
2023-04-06T20:19:15.544Z,47.53
2023-04-06T20:21:48.819Z,47.43
2023-04-06T20:24:21.737Z,47.38
2023-04-06T20:26:54.406Z,47.77
2023-04-06T20:29:27.376Z,47.94
2023-04-06T20:32:01.524Z,47.89
2023-04-06T20:34:33.988Z,48.57
2023-04-06T20:37:06.417Z,48.41
2023-04-06T20:39:40.614Z,48.81
2023-04-06T20:42:13.408Z,48.36
2023-04-06T20:44:46.892Z,47.60
2023-04-06T20:47:19.695Z,47.59
2023-04-06T20:49:51.811Z,47.14
2023-04-06T20:52:24.138Z,47.08
2023-04-06T20:55:03.627Z,47.27
2023-04-06T20:57:36.489Z,47.12
2023-04-06T21:00:12.327Z,46.74
2023-04-06T21:02:44.795Z,46.73
2023-04-06T21:05:18.409Z,46.82
2023-04-06T21:07:51.382Z,47.10
2023-04-06T21:10:24.235Z,47.80
2023-04-06T21:12:56.526Z,48.77
2023-04-06T21:15:28.971Z,49.14
2023-04-06T21:18:01.334Z,49.31
2023-04-06T21:20:35.054Z,49.34
2023-04-06T21:23:07.997Z,49.05
2023-04-06T21:25:41.222Z,49.44
2023-04-06T21:28:14.400Z,49.70
2023-04-06T21:30:47.050Z,49.33
2023-04-06T21:33:19.448Z,49.23
2023-04-06T21:35:52.038Z,49.45
2023-04-06T21:38:24.403Z,49.67
2023-04-06T21:40:59.071Z,49.38
2023-04-06T21:43:32.036Z,49.79
2023-04-06T21:46:04.964Z,50.05
2023-04-06T21:48:37.437Z,50.07
2023-04-06T21:51:09.839Z,50.49
2023-04-06T21:53:42.418Z,50.57
2023-04-06T21:56:15.311Z,50.66
2023-04-06T21:58:47.945Z,50.75
2023-04-06T22:01:20.176Z,50.67
2023-04-06T22:03:53.107Z,50.79
2023-04-06T22:06:25.925Z,51.01
2023-04-06T22:08:58.299Z,51.44
2023-04-06T22:11:30.629Z,51.73
2023-04-06T22:14:03.186Z,51.46
2023-04-06T22:16:35.866Z,51.34
2023-04-06T22:19:08.490Z,51.50
2023-04-06T22:21:41.240Z,51.58
2023-04-06T22:24:13.982Z,51.10
2023-04-06T22:26:46.572Z,50.66
2023-04-06T22:29:18.933Z,50.11
2023-04-06T22:31:51.200Z,49.47
2023-04-06T22:34:23.536Z,49.03
2023-04-06T22:36:57.238Z,48.55
2023-04-06T22:39:29.535Z,48.26
2023-04-06T22:42:01.729Z,48.52
2023-04-06T22:44:33.861Z,47.88
2023-04-06T22:47:06.218Z,48.02
2023-04-06T22:49:38.593Z,48.36
2023-04-06T22:52:11.044Z,48.37
2023-04-06T22:54:43.409Z,48.21
2023-04-06T22:57:16.135Z,48.18
2023-04-06T22:59:48.523Z,48.31
2023-04-06T23:02:20.937Z,48.50
2023-04-06T23:04:53.544Z,48.63
2023-04-06T23:07:26.001Z,48.74
2023-04-06T23:09:58.280Z,48.95
2023-04-06T23:12:30.622Z,49.05
2023-04-06T23:15:04.204Z,48.36
2023-04-06T23:17:37.111Z,48.41
2023-04-06T23:20:11.572Z,48.37
2023-04-06T23:22:43.976Z,48.67
2023-04-06T23:25:16.322Z,49.09
2023-04-06T23:27:48.839Z,49.32
2023-04-06T23:30:21.617Z,49.89
2023-04-06T23:32:53.998Z,50.53
2023-04-06T23:35:26.735Z,51.56
2023-04-06T23:37:59.739Z,52.42
2023-04-06T23:40:32.774Z,52.38
2023-04-06T23:43:05.064Z,52.92
2023-04-06T23:45:40.393Z,52.57
2023-04-06T23:48:12.948Z,52.71
2023-04-06T23:50:45.188Z,52.57
2023-04-06T23:53:17.442Z,52.82
2023-04-06T23:55:49.696Z,53.55
2023-04-06T23:58:22.157Z,53.87
